Diamond, Ohio
Current Conditions -  °F | °C
As of 1:38 AM on Sunday 26 Oct 2014 (Local Time) from KPOV Reporting Station
Clear Clear  
Wind Chill: 52°   Ceiling: Unl
Heat Index: 52°   Visibility: 10mi
Dew Point: 29°   Wind: 7mph
Humidity: 42%   Direction: 270°W
Pressure: 29.8"   Gusts: NA
Location:  41.1°N, 81.02°W
Report Text: KPOV 260538Z AUTO 27006KT 10SM CLR 11/M01 A2980 RMK AO2 T01121014
Loading
Personal Weather Stations






























Interactive Weather Map
Tropical Storm Tracking
New forecast layout! Learn more

10-Day Weather Forecast

Advertisements
Track Severe Weather on mobile